Time;durP1;ratioP1;P1;durP2;ratioP2;P2;SDS_P1;SDS_P2;PMS_P1;PMS_P2;Temp;Humidity;BMP_temperature;BMP_pressure;BME280_temperature;BME280_humidity;BME280_pressure;Samples;Min_cycle;Max_cycle;Signal;HPM_P1;HPM_P2
2022/05/01 00:04:01;;;;;;;9.48;4.82;;;;;;;13.04;49.39;100148.22;7658983;32;40014;-70
2022/05/01 00:08:18;;;;;;;6.40;3.90;;;;;;;13.36;47.86;100137.97;7658710;32;38750;-70
2022/05/01 00:12:35;;;;;;;5.80;3.62;;;;;;;13.39;46.98;100137.44;7658866;32;37598;-70
2022/05/01 00:16:51;;;;;;;6.50;3.80;;;;;;;13.26;46.59;100138.81;7658810;32;39377;-70
2022/05/01 00:21:08;;;;;;;6.65;3.67;;;;;;;13.28;46.78;100139.34;7657555;32;40813;-70
2022/05/01 00:25:24;;;;;;;6.97;4.12;;;;;;;13.02;46.96;100138.63;7658663;32;38042;-71
2022/05/01 00:29:40;;;;;;;7.45;4.45;;;;;;;13.02;48.22;100139.47;7658702;32;37075;-71
2022/05/01 00:38:32;;;;;;;7.40;4.47;;;;;;;13.21;47.58;100139.66;7658595;32;40866;-70
2022/05/01 00:42:48;;;;;;;11.48;4.95;;;;;;;12.95;49.30;100149.88;7658805;32;36087;-70
2022/05/01 00:47:04;;;;;;;6.87;4.47;;;;;;;12.55;53.54;100146.16;7658486;32;37148;-70
2022/05/01 00:51:20;;;;;;;8.48;4.95;;;;;;;12.63;53.74;100148.34;7658554;32;39077;-70
2022/05/01 00:55:38;;;;;;;8.45;4.75;;;;;;;12.79;52.72;100154.59;7658343;32;39898;-71
2022/05/01 00:59:54;;;;;;;7.62;4.85;;;;;;;12.99;51.61;100156.44;7658355;32;37923;-70
2022/05/01 01:04:11;;;;;;;7.18;4.68;;;;;;;13.01;50.41;100146.03;7657180;32;36738;-71
2022/05/01 01:08:28;;;;;;;8.63;4.37;;;;;;;12.95;50.75;100147.16;7658219;32;39442;-70
2022/05/01 01:12:56;;;;;;;7.05;4.25;;;;;;;13.05;49.22;100147.09;7658140;32;39969;-70
2022/05/01 01:17:12;;;;;;;10.48;4.80;;;;;;;12.83;50.40;100147.47;7658021;32;37723;-70
2022/05/01 01:21:28;;;;;;;8.38;4.93;;;;;;;12.82;50.16;100150.50;7658084;32;37091;-70
2022/05/01 01:25:46;;;;;;;9.02;5.47;;;;;;;12.77;51.59;100143.91;7658021;32;39290;-70
2022/05/01 01:34:38;;;;;;;9.15;5.45;;;;;;;12.52;53.37;100153.00;7657356;32;38481;-70
2022/05/01 01:38:55;;;;;;;9.18;5.25;;;;;;;12.74;53.58;100152.66;7657706;32;37751;-70
2022/05/01 01:43:12;;;;;;;10.57;6.12;;;;;;;12.72;53.36;100140.38;7657682;32;39273;-70
2022/05/01 01:47:28;;;;;;;9.70;5.70;;;;;;;12.47;54.54;100154.91;7657429;32;40151;-70
2022/05/01 01:51:44;;;;;;;9.95;6.07;;;;;;;12.80;53.13;100144.44;7657344;32;37616;-71
2022/05/01 01:56:02;;;;;;;10.15;5.55;;;;;;;13.15;51.96;100143.53;7657364;32;37001;-70
2022/05/01 02:00:18;;;;;;;8.32;4.80;;;;;;;13.27;50.82;100132.25;7657162;32;39501;-70
2022/05/01 02:04:34;;;;;;;8.43;4.85;;;;;;;12.84;50.07;100137.34;7655917;32;40211;-70
2022/05/01 02:08:50;;;;;;;9.88;4.22;;;;;;;13.08;49.26;100143.81;7656783;32;37581;-71
2022/05/01 02:13:07;;;;;;;8.68;3.80;;;;;;;13.22;49.19;100135.81;7656926;32;37555;-71
2022/05/01 02:17:23;;;;;;;5.78;4.10;;;;;;;13.53;47.99;100132.94;7656714;32;40045;-70
2022/05/01 02:21:40;;;;;;;9.15;4.20;;;;;;;13.57;47.06;100128.53;7656643;32;40041;-70
2022/05/01 02:25:56;;;;;;;8.02;3.83;;;;;;;13.37;46.67;100134.16;7656305;32;37899;-71
2022/05/01 02:30:14;;;;;;;6.20;4.03;;;;;;;13.31;47.27;100130.56;7656447;32;38730;-70
2022/05/01 02:34:30;;;;;;;6.03;3.65;;;;;;;13.14;47.41;100131.75;7656393;32;40123;-71
2022/05/01 02:38:47;;;;;;;5.18;3.65;;;;;;;13.18;47.14;100136.66;7656355;32;39794;-71
2022/05/01 02:43:05;;;;;;;8.45;3.62;;;;;;;13.26;46.97;100127.84;7656419;32;38000;-70
2022/05/01 02:47:21;;;;;;;7.65;3.67;;;;;;;13.44;46.03;100124.50;7659943;32;36345;-70
2022/05/01 02:51:38;;;;;;;7.57;4.30;;;;;;;13.64;45.39;100130.97;7659794;32;40056;-70
2022/05/01 02:55:54;;;;;;;6.05;3.75;;;;;;;13.39;48.96;100140.16;7659658;32;39961;-70
2022/05/01 03:00:16;;;;;;;5.72;3.72;;;;;;;13.37;48.67;100123.19;7659639;32;38031;-70
2022/05/01 03:04:33;;;;;;;5.22;3.22;;;;;;;13.20;47.04;100129.81;7659823;32;36737;-71
2022/05/01 03:08:49;;;;;;;6.28;3.37;;;;;;;13.14;45.61;100126.28;7659615;32;39406;-70
2022/05/01 03:13:05;;;;;;;6.82;3.80;;;;;;;13.35;45.14;100120.75;7658333;32;40030;-71
2022/05/01 03:17:21;;;;;;;5.57;3.50;;;;;;;13.43;45.12;100136.56;7659531;32;37731;-71
2022/05/01 03:26:12;;;;;;;7.22;3.83;;;;;;;13.45;46.35;100130.81;7659368;32;39096;-70
2022/05/01 03:30:29;;;;;;;5.03;3.60;;;;;;;13.40;46.51;100123.44;7659195;32;40740;-70
2022/05/01 03:34:45;;;;;;;5.78;3.42;;;;;;;13.29;45.90;100132.78;7657953;32;38849;-71
2022/05/01 03:39:04;;;;;;;8.70;3.87;;;;;;;13.32;45.02;100140.47;7659309;32;37298;-70
2022/05/01 03:43:21;;;;;;;6.28;3.60;;;;;;;13.40;41.84;100139.03;7659282;32;39310;-70
2022/05/01 03:47:37;;;;;;;6.22;3.50;;;;;;;13.49;44.18;100140.91;7659169;32;39873;-71
2022/05/01 03:51:53;;;;;;;5.93;3.75;;;;;;;13.60;44.32;100133.44;7658914;32;38796;-71
2022/05/01 03:56:10;;;;;;;5.72;3.72;;;;;;;13.64;42.80;100150.97;7659008;32;37119;-71
2022/05/01 04:00:27;;;;;;;6.78;3.95;;;;;;;13.38;45.01;100152.22;7659070;32;39753;-71
2022/05/01 04:04:48;;;;;;;7.60;4.30;;;;;;;13.59;45.42;100148.28;7658981;32;39896;-71
2022/05/01 04:09:04;;;;;;;7.60;4.20;;;;;;;13.70;45.11;100143.53;7658650;32;38816;-71
2022/05/01 04:13:21;;;;;;;6.62;3.85;;;;;;;13.65;45.23;100141.63;7658856;32;37148;-71
2022/05/01 04:17:41;;;;;;;6.93;3.95;;;;;;;13.67;42.54;100149.56;7658780;32;39393;-71
2022/05/01 04:21:57;;;;;;;6.10;4.22;;;;;;;13.66;43.61;100150.66;7658749;32;40870;-71
2022/05/01 04:26:13;;;;;;;5.97;3.62;;;;;;;13.54;45.09;100156.50;7658667;32;38630;-70
2022/05/01 04:30:31;;;;;;;5.72;3.40;;;;;;;13.77;45.03;100155.00;7658756;32;37020;-70
2022/05/01 04:34:47;;;;;;;7.70;3.90;;;;;;;14.02;44.55;100154.00;7658527;32;39529;-71
2022/05/01 04:39:04;;;;;;;10.43;4.18;;;;;;;14.08;42.48;100161.06;7658604;32;40651;-71
2022/05/01 04:43:22;;;;;;;6.60;4.22;;;;;;;13.85;46.20;100156.31;7658405;32;37901;-71
2022/05/01 04:47:39;;;;;;;6.32;3.92;;;;;;;14.22;45.52;100150.25;7658552;32;37803;-70
2022/05/01 04:51:55;;;;;;;6.40;4.00;;;;;;;14.49;42.48;100148.94;7658277;32;39326;-71
2022/05/01 05:00:46;;;;;;;7.75;4.35;;;;;;;14.30;46.23;100178.16;7658309;32;38188;-70
2022/05/01 05:05:04;;;;;;;22.30;4.90;;;;;;;14.42;45.55;100164.91;7658176;32;37872;-70
2022/05/01 05:13:57;;;;;;;7.95;3.62;;;;;;;14.26;44.59;100155.97;7658096;32;39885;-69
2022/05/01 05:18:13;;;;;;;6.07;3.75;;;;;;;14.80;39.75;100165.13;7657983;32;38884;-71
2022/05/01 05:22:30;;;;;;;6.85;4.25;;;;;;;14.36;44.00;100174.28;7658010;32;37805;-70
2022/05/01 05:26:46;;;;;;;8.02;4.10;;;;;;;14.51;44.66;100167.84;7657843;32;39980;-70
2022/05/01 05:31:03;;;;;;;6.87;4.00;;;;;;;14.90;41.07;100169.66;7657867;32;40070;-70
2022/05/01 05:35:19;;;;;;;6.90;4.22;;;;;;;15.37;39.62;100171.56;7657564;32;38112;-70
2022/05/01 05:39:35;;;;;;;6.30;4.30;;;;;;;14.89;42.17;100179.84;7658023;32;36335;-71
2022/05/01 05:43:52;;;;;;;5.97;3.95;;;;;;;15.18;42.76;100182.53;7657634;32;40045;-70
2022/05/01 05:48:13;;;;;;;8.43;4.12;;;;;;;15.10;43.21;100185.09;7657558;32;40024;-70
2022/05/01 05:52:29;;;;;;;7.93;4.22;;;;;;;15.66;43.81;100181.66;7657351;32;38169;-71
2022/05/01 05:56:45;;;;;;;8.07;3.78;;;;;;;15.63;45.18;100174.00;7657382;32;37048;-71
2022/05/01 06:01:01;;;;;;;6.47;4.00;;;;;;;16.06;44.99;100184.94;7657283;32;39258;-71
2022/05/01 06:05:17;;;;;;;8.20;4.20;;;;;;;16.00;44.88;100180.63;7657061;32;39880;-73
2022/05/01 06:09:34;;;;;;;7.50;3.97;;;;;;;16.45;42.94;100183.75;7656842;32;37863;-76
2022/05/01 06:13:51;;;;;;;12.45;4.10;;;;;;;16.31;43.75;100183.69;7657003;32;36941;-77
2022/05/01 06:18:07;;;;;;;8.90;4.10;;;;;;;16.78;45.09;100193.91;7657907;32;39400;-71
2022/05/01 06:22:23;;;;;;;8.13;3.95;;;;;;;16.87;41.16;100186.63;7660152;32;39992;-75
2022/05/01 06:26:39;;;;;;;8.70;3.78;;;;;;;16.79;42.00;100188.09;7660166;32;38941;-71
2022/05/01 06:30:57;;;;;;;7.25;3.90;;;;;;;17.07;39.80;100188.97;7660069;32;37129;-71
2022/05/01 06:35:14;;;;;;;9.20;3.90;;;;;;;17.27;38.55;100187.75;7659906;32;39419;-71
2022/05/01 06:39:30;;;;;;;8.13;3.95;;;;;;;16.86;39.66;100190.47;7659911;32;41215;-71
2022/05/01 06:43:46;;;;;;;8.27;4.25;;;;;;;17.01;38.02;100187.44;7659838;32;37716;-71
2022/05/01 06:48:02;;;;;;;6.95;3.97;;;;;;;17.38;38.69;100190.28;7659910;32;37593;-71
2022/05/01 06:52:26;;;;;;;8.63;3.90;;;;;;;17.37;36.64;100194.19;7659970;32;39290;-71
2022/05/01 06:56:44;;;;;;;;;;;;;;;17.11;39.73;100193.84;7660123;32;40849;-72
2022/05/01 07:01:00;;;;;;;6.75;3.62;;;;;;;17.19;37.88;100188.44;7659802;32;38425;-72
2022/05/01 07:05:18;;;;;;;9.25;4.22;;;;;;;17.77;37.41;100186.94;7659037;32;37249;-71
2022/05/01 07:09:35;;;;;;;8.52;4.55;;;;;;;17.88;36.58;100181.22;7658829;32;39049;-72
2022/05/01 07:13:52;;;;;;;8.70;4.22;;;;;;;17.78;36.63;100187.75;7670912;32;39970;-71
2022/05/01 07:18:08;;;;;;;6.40;3.80;;;;;;;18.32;35.47;100180.44;7672123;32;37979;-72
2022/05/01 07:22:24;;;;;;;8.13;4.05;;;;;;;18.18;34.22;100185.22;7671373;32;38273;-72
2022/05/01 07:26:40;;;;;;;7.18;4.10;;;;;;;18.23;33.92;100179.56;7671334;32;39132;-72
2022/05/01 07:30:56;;;;;;;9.40;4.18;;;;;;;18.77;33.07;100185.09;7671475;32;40532;-72
2022/05/01 07:35:13;;;;;;;5.85;3.60;;;;;;;19.12;34.57;100175.00;7658943;32;37936;-73
2022/05/01 07:39:29;;;;;;;19.67;4.15;;;;;;;19.48;34.88;100171.22;7659286;32;37757;-72
2022/05/01 07:43:46;;;;;;;6.28;3.58;;;;;;;19.66;34.66;100174.00;7659153;32;39463;-77
2022/05/01 07:48:03;;;;;;;7.15;3.45;;;;;;;19.67;35.44;100161.81;7659139;32;40504;-72
2022/05/01 07:52:19;;;;;;;5.03;3.17;;;;;;;20.05;36.11;100163.97;7658939;32;38706;-72
2022/05/01 07:56:36;;;;;;;10.27;3.67;;;;;;;20.56;32.55;100162.25;7659115;32;37179;-72
2022/05/01 08:00:53;;;;;;;9.70;3.37;;;;;;;20.37;32.39;100159.88;7658967;32;39366;-71
2022/05/01 08:05:09;;;;;;;5.07;2.97;;;;;;;20.54;32.48;100156.25;7658687;32;39984;-71
2022/05/01 08:09:27;;;;;;;5.68;3.33;;;;;;;20.79;33.27;100148.19;7658768;32;38779;-71
2022/05/01 08:13:44;;;;;;;5.65;3.40;;;;;;;21.23;31.46;100137.72;7658890;32;37905;-71
2022/05/01 08:22:36;;;;;;;4.55;2.90;;;;;;;21.38;32.99;100139.88;7646296;32;40533;-72
2022/05/01 08:26:52;;;;;;;4.80;3.25;;;;;;;21.42;34.94;100139.22;7658550;32;37643;-72
2022/05/01 08:31:09;;;;;;;5.32;3.05;;;;;;;21.43;32.54;100129.75;7658498;32;37011;-71
2022/05/01 08:35:25;;;;;;;4.30;2.80;;;;;;;21.39;31.57;100132.41;7658361;32;39454;-71
2022/05/01 08:39:41;;;;;;;4.50;2.58;;;;;;;21.73;32.45;100125.81;7658345;32;39924;-72
2022/05/01 08:43:59;;;;;;;7.18;2.90;;;;;;;21.97;32.26;100129.03;7657236;32;38665;-72
2022/05/01 08:48:21;;;;;;;10.98;3.53;;;;;;;22.07;31.69;100123.88;7658462;32;37907;-72
2022/05/01 08:52:39;;;;;;;4.87;3.10;;;;;;;22.11;33.40;100127.59;7657212;32;39412;-72
2022/05/01 08:56:57;;;;;;;6.75;2.95;;;;;;;21.59;31.67;100136.34;7658315;32;39810;-72
2022/05/01 09:01:13;;;;;;;4.28;2.55;;;;;;;21.91;31.99;100122.91;7656989;32;37866;-72
2022/05/01 09:05:29;;;;;;;3.53;2.60;;;;;;;22.12;34.41;100122.84;7658231;32;37152;-72
2022/05/01 09:09:45;;;;;;;6.55;2.70;;;;;;;22.41;32.29;100110.81;7661936;32;39451;-73
2022/05/01 09:14:05;;;;;;;2.87;2.20;;;;;;;22.15;30.72;100115.81;7669804;32;39918;-73
2022/05/01 09:18:22;;;;;;;5.07;2.35;;;;;;;21.62;32.76;100126.56;7670540;32;37893;-73
2022/05/01 09:22:54;;;;;;;3.85;1.87;;;;;;;21.28;33.17;100122.84;7669464;32;36898;-73
2022/05/01 09:27:43;;;;;;;3.53;2.28;;;;;;;21.15;32.64;100119.97;7670683;32;39476;-72
2022/05/01 09:32:06;;;;;;;5.03;2.33;;;;;;;21.03;32.06;100113.53;7637109;32;40696;-73
2022/05/01 09:36:36;;;;;;;7.10;2.40;;;;;;;20.66;32.48;100118.75;7666930;32;37971;-71
2022/05/01 09:40:58;;;;;;;6.45;2.80;;;;;;;20.97;33.18;100108.19;7657589;32;37729;-72
2022/05/01 09:45:15;;;;;;;4.37;2.60;;;;;;;21.63;32.56;100112.34;7657404;32;40776;-72
2022/05/01 09:49:44;;;;;;;4.95;2.50;;;;;;;21.75;30.72;100106.88;7657118;32;39920;-71
2022/05/01 09:54:05;;;;;;;4.03;2.12;;;;;;;22.30;29.50;100101.28;7655766;32;38830;-72
2022/05/01 09:58:23;;;;;;;4.72;2.50;;;;;;;22.53;30.25;100103.69;7657287;32;37229;-72
2022/05/01 10:02:39;;;;;;;7.37;2.50;;;;;;;22.60;30.12;100099.16;7658957;32;39372;-72
2022/05/01 10:06:57;;;;;;;3.75;2.65;;;;;;;23.13;28.57;100088.19;7670635;32;40038;-73
2022/05/01 10:11:16;;;;;;;3.95;2.20;;;;;;;23.44;27.61;100082.00;7661303;32;38801;-72
2022/05/01 10:15:33;;;;;;;4.03;2.10;;;;;;;23.87;26.35;100067.72;7656834;32;36907;-72
2022/05/01 10:19:49;;;;;;;4.82;2.00;;;;;;;24.43;26.76;100069.62;7643226;32;40065;-72
2022/05/01 10:24:07;;;;;;;6.50;2.30;;;;;;;24.61;24.05;100065.34;7656505;32;39919;-73
2022/05/01 10:28:57;;;;;;;6.55;2.28;;;;;;;24.57;25.01;100063.63;7656401;32;38469;-72
2022/05/01 10:33:51;;;;;;;2.72;2.17;;;;;;;24.67;23.90;100055.53;7656112;32;37363;-74
2022/05/01 10:38:47;;;;;;;4.28;2.35;;;;;;;25.11;21.54;100040.59;7655860;32;40622;-73
2022/05/01 10:43:24;;;;;;;5.45;2.80;;;;;;;25.07;23.37;100043.31;7655031;32;40749;-75
2022/05/01 10:47:41;;;;;;;4.32;2.50;;;;;;;25.37;22.52;100040.00;7655846;32;38049;-74
2022/05/01 10:52:20;;;;;;;4.62;2.60;;;;;;;25.04;22.31;100037.66;7654601;32;37702;-75
2022/05/01 10:56:37;;;;;;;4.93;2.42;;;;;;;25.44;23.62;100040.16;7655653;32;40129;-81
2022/05/01 11:01:14;;;;;;;5.80;3.25;;;;;;;25.11;22.56;100033.06;7654099;32;40204;-81
2022/05/01 11:05:42;;;;;;;6.28;2.62;;;;;;;24.99;21.58;100033.19;7657185;32;37931;-81
2022/05/01 11:10:00;;;;;;;5.50;2.90;;;;;;;24.13;23.36;100039.41;7658237;32;36798;-78
2022/05/01 11:14:17;;;;;;;5.00;2.50;;;;;;;24.33;24.39;100029.97;7659445;32;39238;-79
2022/05/01 11:18:42;;;;;;;5.45;2.55;;;;;;;24.15;24.04;100025.94;7659279;32;40726;-78
2022/05/01 11:23:19;;;;;;;3.50;2.08;;;;;;;23.92;23.37;100020.13;7659145;32;37967;-79
2022/05/01 11:27:52;;;;;;;6.78;2.40;;;;;;;23.92;24.97;100026.53;7659216;32;37304;-78
2022/05/01 11:32:19;;;;;;;5.78;3.30;;;;;;;23.71;25.10;100011.97;7657829;32;40045;-79
2022/05/01 11:36:53;;;;;;;3.85;2.35;;;;;;;23.65;27.90;100013.41;7659084;32;39969;-80
2022/05/01 11:41:11;;;;;;;6.57;2.78;;;;;;;23.59;27.57;100005.31;7658486;32;38681;-80
2022/05/01 11:45:33;;;;;;;5.10;2.37;;;;;;;23.33;27.01;100008.53;7663880;32;37123;-79
2022/05/01 11:49:52;;;;;;;3.25;2.30;;;;;;;23.30;27.66;100000.09;7671549;32;39314;-78
2022/05/01 11:54:09;;;;;;;7.82;3.15;;;;;;;23.23;27.70;99998.72;7667816;32;40424;-78
2022/05/01 12:03:11;;;;;;;6.18;2.55;;;;;;;23.05;26.50;100005.69;7679857;32;36995;-77
2022/05/01 12:07:27;;;;;;;6.65;3.28;;;;;;;23.02;24.58;100003.59;7682631;32;39641;-83
2022/05/01 12:11:46;;;;;;;4.78;2.50;;;;;;;22.87;24.53;99994.84;7682013;32;39669;-79
2022/05/01 12:16:02;;;;;;;5.07;2.60;;;;;;;22.95;24.21;99995.03;7683153;32;38558;-82
2022/05/01 12:20:19;;;;;;;5.12;2.60;;;;;;;22.83;24.94;99996.66;7685194;32;37529;-77
2022/05/01 12:24:36;;;;;;;6.05;2.97;;;;;;;22.43;25.25;99989.06;7685435;32;40049;-79
2022/05/01 12:28:52;;;;;;;7.45;2.70;;;;;;;22.55;26.31;99982.69;7685389;32;40857;-78
2022/05/01 12:33:17;;;;;;;6.78;2.72;;;;;;;22.70;27.04;99981.19;7683625;32;37552;-79
2022/05/01 12:37:35;;;;;;;4.30;2.60;;;;;;;22.72;26.73;99980.84;7683548;32;37747;-79
2022/05/01 12:46:52;;;;;;;6.68;2.67;;;;;;;22.54;27.46;99969.16;7684599;32;39910;-80
2022/05/01 12:51:09;;;;;;;4.70;2.30;;;;;;;22.48;27.90;99955.50;7684428;32;37902;-80
2022/05/01 12:55:29;;;;;;;7.05;2.70;;;;;;;22.48;27.60;99958.28;7683457;32;38066;-80
2022/05/01 12:59:56;;;;;;;5.40;2.60;;;;;;;22.31;28.42;99952.97;7684686;32;39320;-72
2022/05/01 13:04:24;;;;;;;3.72;2.47;;;;;;;22.47;26.82;99950.28;7684710;32;39957;-72
2022/05/01 13:08:52;;;;;;;4.05;2.60;;;;;;;22.49;26.93;99948.81;7684655;32;38442;-72
2022/05/01 13:13:09;;;;;;;5.78;2.70;;;;;;;22.38;28.90;99944.84;7683281;32;37740;-77
2022/05/01 13:17:28;;;;;;;8.65;2.58;;;;;;;22.53;26.69;99932.25;7683291;32;39353;-75
2022/05/01 13:21:52;;;;;;;7.07;2.37;;;;;;;22.57;27.89;99927.59;7684545;32;39845;-77
2022/05/01 13:26:09;;;;;;;10.73;3.05;;;;;;;22.68;26.32;99917.63;7684189;32;37973;-77
2022/05/01 13:30:25;;;;;;;3.17;2.40;;;;;;;22.64;27.03;99919.47;7683556;32;37133;-76
2022/05/01 13:34:44;;;;;;;5.65;2.55;;;;;;;22.72;26.75;99911.38;7683545;32;39449;-77
2022/05/01 13:39:03;;;;;;;7.25;2.25;;;;;;;22.87;26.61;99917.00;7682981;32;40567;-77
2022/05/01 13:47:54;;;;;;;6.25;4.18;;;;;;;22.71;29.93;99899.44;7670630;32;37037;-78
2022/05/01 13:52:12;;;;;;;10.85;4.28;;;;;;;22.89;30.37;99894.44;7658767;32;40114;-76
2022/05/01 13:56:34;;;;;;;32.10;5.32;;;;;;;22.70;31.48;99892.28;7683779;32;40804;-76
2022/05/01 14:00:50;;;;;;;5.20;3.35;;;;;;;22.86;32.09;99884.81;7683553;32;38017;-76
2022/05/01 14:05:08;;;;;;;5.28;2.37;;;;;;;23.18;30.19;99881.34;7665831;32;37776;-75
2022/05/01 14:09:24;;;;;;;5.43;2.70;;;;;;;23.25;27.58;99878.78;7664696;32;40134;-74
2022/05/01 14:13:40;;;;;;;6.22;2.25;;;;;;;23.42;29.25;99883.19;7673610;32;39853;-77
2022/05/01 14:17:59;;;;;;;5.65;2.53;;;;;;;23.48;25.95;99870.66;7661927;32;37597;-69
2022/05/01 14:22:18;;;;;;;6.75;2.35;;;;;;;23.74;24.69;99872.91;7665266;32;36343;-70
2022/05/01 14:26:35;;;;;;;9.15;2.80;;;;;;;23.78;24.46;99867.44;7669319;32;40354;-73
2022/05/01 14:31:24;;;;;;;4.90;2.60;;;;;;;23.86;25.92;99860.91;7678391;32;40759;-71
2022/05/01 14:35:42;;;;;;;4.15;2.50;;;;;;;23.31;27.21;99857.09;7662194;32;37520;-72
2022/05/01 14:40:00;;;;;;;5.65;3.15;;;;;;;22.97;28.78;99859.28;7665063;32;36159;-69
2022/05/01 14:44:45;;;;;;;4.20;2.30;;;;;;;22.93;28.41;99855.63;7679407;32;39389;-74
2022/05/01 14:49:14;;;;;;;4.70;2.40;;;;;;;23.05;29.20;99845.25;7677132;32;39892;-73
2022/05/01 14:53:31;;;;;;;4.05;2.30;;;;;;;23.77;27.56;99843.56;7672608;32;37886;-72
2022/05/01 14:57:48;;;;;;;4.85;2.30;;;;;;;23.84;25.36;99838.19;7678677;32;37034;-71
2022/05/01 15:06:43;;;;;;;13.07;2.67;;;;;;;24.10;23.48;99839.59;7672318;32;40549;-70
2022/05/01 15:11:00;;;;;;;4.85;2.60;;;;;;;23.83;25.75;99831.00;7659523;32;38492;-70
2022/05/01 15:15:17;;;;;;;8.27;2.75;;;;;;;23.80;25.54;99828.91;7685881;32;37151;-71
2022/05/01 15:19:42;;;;;;;8.93;3.00;;;;;;;23.70;26.00;99824.72;7668245;32;39329;-71
2022/05/01 15:24:03;;;;;;;8.07;2.67;;;;;;;23.90;25.88;99827.59;7669073;32;40542;-72
2022/05/01 15:28:20;;;;;;;4.68;2.55;;;;;;;23.59;25.43;99837.53;7660501;32;38756;-72
2022/05/01 15:37:40;;;;;;;7.22;2.60;;;;;;;23.90;26.84;99819.25;7659053;32;39368;-73
2022/05/01 15:41:58;;;;;;;7.15;2.55;;;;;;;24.38;23.63;99817.94;7658102;32;39995;-73
2022/05/01 15:46:22;;;;;;;3.80;2.50;;;;;;;24.15;22.13;99814.25;7658775;32;38042;-71
2022/05/01 15:55:17;;;;;;;6.37;2.92;;;;;;;24.53;21.44;99807.12;7670304;32;39375;-72
2022/05/01 15:59:34;;;;;;;4.03;2.62;;;;;;;23.86;23.86;99805.25;7658797;32;40718;-72
2022/05/01 16:03:51;;;;;;;6.10;2.75;;;;;;;23.66;24.97;99804.31;7658531;32;37127;-72
2022/05/01 16:08:31;;;;;;;5.32;2.67;;;;;;;23.51;25.15;99803.19;7677899;32;37904;-72
2022/05/01 16:12:59;;;;;;;2.97;2.28;;;;;;;24.00;23.09;99808.34;7684966;32;39464;-72
2022/05/01 16:17:28;;;;;;;8.45;2.40;;;;;;;23.76;24.04;99805.75;7685074;32;39960;-72
2022/05/01 16:22:10;;;;;;;3.85;2.25;;;;;;;24.06;22.21;99805.28;7684758;32;37543;-72
2022/05/01 16:26:31;;;;;;;4.00;2.15;;;;;;;23.76;22.49;99803.78;7676465;32;37824;-73
2022/05/01 16:30:50;;;;;;;5.93;2.35;;;;;;;24.21;22.43;99798.88;7684950;32;39343;-73
2022/05/01 16:35:11;;;;;;;5.35;2.00;;;;;;;24.13;23.87;99803.50;7680716;32;38959;-72
2022/05/01 16:39:27;;;;;;;4.75;2.40;;;;;;;24.13;22.73;99797.13;7685157;32;37886;-72
2022/05/01 16:43:45;;;;;;;6.03;2.62;;;;;;;23.73;23.12;99792.56;7670941;32;37038;-72
2022/05/01 16:48:06;;;;;;;4.60;2.40;;;;;;;23.74;23.61;99794.97;7650650;32;217630;-73
2022/05/01 16:52:25;;;;;;;3.60;2.20;;;;;;;23.39;24.77;99806.84;7665671;32;39622;-72
2022/05/01 16:56:42;;;;;;;4.82;2.60;;;;;;;23.58;22.52;99808.91;7669171;32;37974;-74
2022/05/01 17:01:05;;;;;;;2.78;2.08;;;;;;;23.49;22.96;99811.06;7683280;32;37343;-74
2022/05/01 17:05:41;;;;;;;4.03;2.08;;;;;;;23.18;23.15;99818.22;7675581;32;38972;-73
2022/05/01 17:10:20;;;;;;;9.50;2.80;;;;;;;22.81;24.96;99826.69;7675270;32;39974;-74
2022/05/01 17:14:51;;;;;;;3.30;2.10;;;;;;;22.71;26.24;99821.62;7670244;32;38413;-74
2022/05/01 17:19:17;;;;;;;6.00;2.58;;;;;;;22.22;27.04;99827.31;7669644;32;37354;-74
2022/05/01 17:23:46;;;;;;;5.10;2.47;;;;;;;21.79;27.63;99826.75;7670043;32;39388;-74
2022/05/01 17:28:04;;;;;;;4.25;2.30;;;;;;;21.66;27.64;99823.16;7671958;32;39608;-72
2022/05/01 17:32:49;;;;;;;4.75;2.40;;;;;;;21.41;28.33;99829.81;7677041;32;37930;-72
2022/05/01 17:37:13;;;;;;;6.20;2.83;;;;;;;21.06;28.60;99841.25;7647717;32;37052;-73
2022/05/01 17:41:30;;;;;;;7.30;2.80;;;;;;;20.80;28.77;99839.53;7668528;32;38017;-73
2022/05/01 17:46:01;;;;;;;6.65;2.58;;;;;;;20.66;29.38;99839.78;7668832;32;39600;-73
2022/05/01 17:50:23;;;;;;;5.28;2.50;;;;;;;20.53;29.60;99847.22;7669589;32;38854;-73
2022/05/01 17:54:40;;;;;;;4.87;2.40;;;;;;;20.20;30.24;99850.69;7667682;32;37148;-73
2022/05/01 17:58:56;;;;;;;8.93;3.10;;;;;;;19.95;31.28;99860.75;7668807;32;40175;-74
2022/05/01 18:03:39;;;;;;;4.97;2.70;;;;;;;19.73;31.98;99856.28;7670267;32;39643;-74
2022/05/01 18:13:07;;;;;;;5.03;2.60;;;;;;;19.30;32.18;99873.81;7668870;32;37112;-73
2022/05/01 18:17:48;;;;;;;7.93;3.97;;;;;;;19.23;31.52;99877.09;7658945;32;37917;-72
2022/05/01 18:22:13;;;;;;;5.18;2.78;;;;;;;19.13;31.70;99878.22;7659079;32;41294;-73
2022/05/01 18:26:41;;;;;;;4.25;2.65;;;;;;;18.98;32.58;99881.50;7658982;32;37819;-73
2022/05/01 18:31:15;;;;;;;5.50;3.12;;;;;;;18.98;32.86;99887.00;7658896;32;37038;-73
2022/05/01 18:35:48;;;;;;;3.97;2.30;;;;;;;19.09;31.96;99888.31;7671343;32;40207;-74
2022/05/01 18:40:12;;;;;;;5.55;2.87;;;;;;;18.88;32.54;99887.34;7672218;32;39701;-74
2022/05/01 18:44:30;;;;;;;6.82;2.90;;;;;;;18.75;32.73;99894.63;7661390;32;38583;-72
2022/05/01 18:48:50;;;;;;;6.72;3.10;;;;;;;18.63;32.66;99891.69;7662229;32;37258;-72
2022/05/01 18:53:07;;;;;;;5.72;3.10;;;;;;;18.46;33.65;99896.06;7680780;32;40166;-72
2022/05/01 18:57:24;;;;;;;6.10;3.70;;;;;;;18.35;34.46;99903.84;7672651;32;40796;-72
2022/05/01 19:01:40;;;;;;;5.47;3.08;;;;;;;18.11;35.53;99895.13;7675333;32;38626;-72
2022/05/01 19:06:34;;;;;;;7.72;3.17;;;;;;;17.85;36.64;99901.37;7661016;32;37122;-72
2022/05/01 19:10:54;;;;;;;5.07;3.10;;;;;;;18.05;36.52;99899.19;7659617;32;39050;-72
2022/05/01 19:15:21;;;;;;;7.00;3.50;;;;;;;17.75;35.20;99901.63;7658512;32;40534;-73
2022/05/01 19:20:22;;;;;;;6.50;2.90;;;;;;;17.73;35.77;99903.88;7666485;32;37885;-74
2022/05/01 19:30:16;;;;;;;6.10;3.55;;;;;;;17.40;36.67;99924.31;7645589;32;39366;-73
2022/05/01 19:34:55;;;;;;;6.22;3.22;;;;;;;17.14;37.87;99931.56;7669832;32;39970;-72
2022/05/01 19:39:19;;;;;;;8.13;3.30;;;;;;;17.24;37.02;99932.13;7669983;32;38587;-72
2022/05/01 19:44:02;;;;;;;9.30;5.10;;;;;;;17.02;37.79;99934.88;7669613;32;37753;-72
2022/05/01 19:53:15;;;;;;;9.55;5.07;;;;;;;16.59;39.79;99938.00;7669157;32;40822;-72
2022/05/01 19:57:33;;;;;;;5.68;3.72;;;;;;;16.98;38.58;99928.38;7665755;32;38016;-73
2022/05/01 20:01:51;;;;;;;6.75;3.12;;;;;;;16.68;39.62;99934.22;7664689;32;36833;-72
2022/05/01 20:06:10;;;;;;;6.45;3.10;;;;;;;16.86;38.82;99929.72;7668562;32;39288;-73
2022/05/01 20:10:27;;;;;;;4.55;2.92;;;;;;;16.94;38.34;99933.69;7667654;32;38857;-73
2022/05/01 20:14:43;;;;;;;7.03;2.97;;;;;;;16.84;38.31;99933.91;7669118;32;37646;-73
2022/05/01 20:19:08;;;;;;;5.30;3.05;;;;;;;16.60;38.66;99934.13;7669120;32;37445;-73
2022/05/01 20:23:33;;;;;;;10.05;3.92;;;;;;;16.11;40.00;99933.78;7669516;32;39826;-72
2022/05/01 20:28:38;;;;;;;6.80;4.10;;;;;;;16.14;39.31;99947.72;7668948;32;39662;-72
2022/05/01 20:33:08;;;;;;;7.55;3.42;;;;;;;16.11;40.14;99937.34;7669826;32;37960;-72
2022/05/01 20:37:38;;;;;;;6.93;3.90;;;;;;;15.94;40.63;99942.63;7669757;32;37137;-72
2022/05/01 20:42:12;;;;;;;6.45;3.60;;;;;;;15.87;40.35;99940.28;7668044;32;39382;-72
2022/05/01 20:46:37;;;;;;;5.87;3.25;;;;;;;15.51;41.52;99937.31;7669796;32;40087;-72
2022/05/01 20:51:04;;;;;;;6.10;3.65;;;;;;;15.71;40.80;99930.63;7668950;32;38766;-72
2022/05/01 20:55:21;;;;;;;6.07;3.62;;;;;;;15.46;41.45;99932.72;7669257;32;37133;-73
2022/05/01 20:59:40;;;;;;;5.12;3.47;;;;;;;15.55;41.17;99932.84;7669141;32;40295;-72
2022/05/01 21:03:59;;;;;;;5.95;3.45;;;;;;;15.19;42.59;99938.94;7665698;32;40006;-72
2022/05/01 21:08:16;;;;;;;7.43;3.92;;;;;;;15.06;43.34;99936.97;7669375;32;38943;-72
2022/05/01 21:12:33;;;;;;;7.10;3.97;;;;;;;15.27;42.95;99932.75;7668215;32;38242;-72
2022/05/01 21:16:49;;;;;;;6.28;3.67;;;;;;;14.72;44.39;99933.31;7669320;32;39408;-71
2022/05/01 21:21:06;;;;;;;6.07;3.78;;;;;;;14.46;44.79;99932.81;7668564;32;39994;-72
2022/05/01 21:25:22;;;;;;;6.10;3.92;;;;;;;14.71;43.86;99934.44;7668424;32;37637;-71
2022/05/01 21:34:14;;;;;;;7.78;3.62;;;;;;;14.65;43.79;99933.66;7655364;32;40076;-71
2022/05/01 21:38:30;;;;;;;9.40;3.80;;;;;;;14.89;43.01;99927.31;7655421;32;40783;-71